createdAt,value
2023-02-02T00:02:02.773Z,88.26
2023-02-02T00:04:34.353Z,87.76
2023-02-02T00:07:03.884Z,86.79
2023-02-02T00:09:31.853Z,87.16
2023-02-02T00:11:59.617Z,87.40
2023-02-02T00:14:26.616Z,87.36
2023-02-02T00:16:57.512Z,87.32
2023-02-02T00:19:26.750Z,87.49
2023-02-02T00:21:54.467Z,87.08
2023-02-02T00:24:21.619Z,87.04
2023-02-02T00:26:54.972Z,87.12
2023-02-02T00:29:30.249Z,87.04
2023-02-02T00:31:56.903Z,86.87
2023-02-02T00:34:23.818Z,87.00
2023-02-02T00:36:51.007Z,87.21
2023-02-02T00:39:21.008Z,86.77
2023-02-02T00:41:48.127Z,86.90
2023-02-02T00:44:33.383Z,87.13
2023-02-02T00:47:00.147Z,87.16
2023-02-02T00:49:27.183Z,86.91
2023-02-02T00:51:53.688Z,87.27
2023-02-02T00:54:20.165Z,87.90
2023-02-02T00:56:46.629Z,86.95
2023-02-02T00:59:13.014Z,86.76
2023-02-02T01:01:39.502Z,86.67
2023-02-02T01:04:06.069Z,86.16
2023-02-02T01:06:32.623Z,86.24
2023-02-02T01:08:59.099Z,86.35
2023-02-02T01:11:25.929Z,86.01
2023-02-02T01:13:53.641Z,86.11
2023-02-02T01:16:22.415Z,86.12
2023-02-02T01:18:49.977Z,85.92
2023-02-02T01:21:16.427Z,86.07
2023-02-02T01:23:42.837Z,86.24
2023-02-02T01:26:10.978Z,86.14
2023-02-02T01:28:38.942Z,86.23
2023-02-02T01:31:11.708Z,85.97
2023-02-02T01:33:38.525Z,86.03
2023-02-02T01:36:08.519Z,85.63
2023-02-02T01:38:35.107Z,86.29
2023-02-02T01:41:04.558Z,85.77
2023-02-02T01:43:52.966Z,85.77
2023-02-02T01:46:26.400Z,85.79
2023-02-02T01:48:58.679Z,85.85
2023-02-02T01:51:55.013Z,85.59
2023-02-02T01:54:31.873Z,85.92
2023-02-02T01:57:02.770Z,85.89
2023-02-02T01:59:31.060Z,86.03
2023-02-02T02:01:57.921Z,85.58
2023-02-02T02:04:26.628Z,86.24
2023-02-02T02:06:53.655Z,86.35
2023-02-02T02:09:20.586Z,86.43
2023-02-02T02:11:46.994Z,86.17
2023-02-02T02:14:33.801Z,85.48
2023-02-02T02:17:03.177Z,86.55
2023-02-02T02:20:19.754Z,85.93
2023-02-02T02:23:39.155Z,86.74
2023-02-02T02:26:43.242Z,86.68
2023-02-02T02:29:47.827Z,86.94
2023-02-02T02:32:17.376Z,87.00
2023-02-02T02:35:09.564Z,87.44
2023-02-02T02:37:45.113Z,87.21
2023-02-02T02:40:21.677Z,87.21
2023-02-02T02:42:55.080Z,87.83
2023-02-02T02:45:25.400Z,88.13
2023-02-02T02:47:52.820Z,88.14
2023-02-02T02:50:20.511Z,88.23
2023-02-02T02:52:49.403Z,89.09
2023-02-02T02:55:16.151Z,89.14
2023-02-02T02:58:01.674Z,89.00
2023-02-02T03:00:48.064Z,89.20
2023-02-02T03:03:29.272Z,89.40
2023-02-02T03:05:55.887Z,89.17
2023-02-02T03:08:44.067Z,89.40
2023-02-02T03:11:12.641Z,89.67
2023-02-02T03:13:40.502Z,90.45
2023-02-02T03:16:07.263Z,90.05
2023-02-02T03:18:34.254Z,90.06
2023-02-02T03:21:01.261Z,90.51
2023-02-02T03:23:28.107Z,90.74
2023-02-02T03:25:55.546Z,90.53
2023-02-02T03:28:23.583Z,91.14
2023-02-02T03:30:51.969Z,90.80
2023-02-02T03:33:18.939Z,90.90
2023-02-02T03:35:45.783Z,90.94
2023-02-02T03:38:12.698Z,91.53
2023-02-02T03:40:39.800Z,91.57
2023-02-02T03:43:06.290Z,92.14
2023-02-02T03:45:35.460Z,92.28
2023-02-02T03:48:05.825Z,92.29
2023-02-02T03:50:33.222Z,93.24
2023-02-02T03:53:00.315Z,93.21
2023-02-02T03:55:27.318Z,92.85
2023-02-02T03:57:53.858Z,93.50
2023-02-02T04:00:20.801Z,93.87
2023-02-02T04:02:47.279Z,93.83
2023-02-02T04:05:13.742Z,93.99
2023-02-02T04:07:40.156Z,94.83
2023-02-02T04:10:06.745Z,94.61
2023-02-02T04:12:33.158Z,94.55
2023-02-02T04:14:59.603Z,94.83
2023-02-02T04:17:26.125Z,95.17
2023-02-02T04:19:57.977Z,95.77
2023-02-02T04:22:26.099Z,95.31
2023-02-02T04:24:52.896Z,96.00
2023-02-02T04:27:19.377Z,95.13
2023-02-02T04:29:45.787Z,95.23
2023-02-02T04:32:14.900Z,95.93
2023-02-02T04:34:41.334Z,95.69
2023-02-02T04:37:07.739Z,96.58
2023-02-02T04:39:34.149Z,96.41
2023-02-02T04:42:00.672Z,96.11
2023-02-02T04:44:27.228Z,95.88
2023-02-02T04:46:53.660Z,96.47
2023-02-02T04:49:20.227Z,96.16
2023-02-02T04:51:46.614Z,96.44
2023-02-02T04:54:13.275Z,96.54
2023-02-02T04:56:39.662Z,97.08
2023-02-02T04:59:06.085Z,97.61
2023-02-02T05:01:33.054Z,97.35
2023-02-02T05:03:59.484Z,97.39
2023-02-02T05:06:26.264Z,96.98
2023-02-02T05:08:53.590Z,97.00
2023-02-02T05:11:22.173Z,97.29
2023-02-02T05:13:53.055Z,97.07
2023-02-02T05:16:21.522Z,97.59
2023-02-02T05:18:54.057Z,97.51
2023-02-02T05:21:21.273Z,97.82
2023-02-02T05:23:48.399Z,97.97
2023-02-02T05:26:22.267Z,97.99
2023-02-02T05:28:49.592Z,98.12
2023-02-02T05:31:16.409Z,98.72
2023-02-02T05:33:42.923Z,97.79
2023-02-02T05:36:09.839Z,98.00
2023-02-02T05:38:36.591Z,97.92
2023-02-02T05:41:06.592Z,97.45
2023-02-02T05:43:33.440Z,97.45
2023-02-02T05:46:00.118Z,97.21
2023-02-02T05:48:27.161Z,98.25
2023-02-02T05:51:15.871Z,97.92
2023-02-02T05:53:44.861Z,98.21
2023-02-02T05:56:12.251Z,97.71
2023-02-02T05:58:39.325Z,97.49
2023-02-02T06:01:05.754Z,97.17
2023-02-02T06:03:32.279Z,97.00
2023-02-02T06:05:58.979Z,97.02
2023-02-02T06:08:25.450Z,97.19
2023-02-02T06:10:51.895Z,97.49
2023-02-02T06:13:18.355Z,98.03
2023-02-02T06:15:44.847Z,97.84
2023-02-02T06:18:11.283Z,98.77
2023-02-02T06:20:38.063Z,97.92
2023-02-02T06:23:05.069Z,97.76
2023-02-02T06:25:32.003Z,98.56
2023-02-02T06:27:59.685Z,98.47
2023-02-02T06:30:27.135Z,98.32
2023-02-02T06:32:54.081Z,98.72
2023-02-02T06:35:20.579Z,98.70
2023-02-02T06:37:47.119Z,98.77
2023-02-02T06:40:13.759Z,99.08
2023-02-02T06:42:40.848Z,99.43
2023-02-02T06:45:07.844Z,99.44
2023-02-02T06:47:35.326Z,100.00
2023-02-02T06:50:01.779Z,100.00
2023-02-02T06:52:28.301Z,99.93
2023-02-02T06:54:55.258Z,100.00
2023-02-02T06:57:21.704Z,100.00
2023-02-02T06:59:48.103Z,100.00
2023-02-02T07:02:14.510Z,100.00
2023-02-02T07:04:40.936Z,100.00
2023-02-02T07:07:07.332Z,100.00
2023-02-02T07:09:34.913Z,100.00
2023-02-02T07:12:01.568Z,100.00
2023-02-02T07:14:28.064Z,100.00
2023-02-02T07:16:54.784Z,100.00
2023-02-02T07:19:21.353Z,100.00
2023-02-02T07:21:47.754Z,100.00
2023-02-02T07:24:14.195Z,100.00
2023-02-02T07:26:40.845Z,100.00
2023-02-02T07:29:07.689Z,100.00
2023-02-02T07:31:36.379Z,100.00
2023-02-02T07:34:03.706Z,100.00
2023-02-02T07:36:30.262Z,100.00
2023-02-02T07:39:01.964Z,100.00
2023-02-02T07:41:28.416Z,100.00
2023-02-02T07:43:55.403Z,100.00
2023-02-02T07:46:22.157Z,100.00
2023-02-02T07:48:48.753Z,100.00
2023-02-02T07:51:17.400Z,100.00
2023-02-02T07:53:49.920Z,100.00
2023-02-02T07:56:19.151Z,100.00
2023-02-02T07:58:45.664Z,100.00
2023-02-02T08:01:14.632Z,100.00
2023-02-02T08:03:42.810Z,100.00
2023-02-02T08:06:23.930Z,100.00
2023-02-02T08:08:50.872Z,100.00
2023-02-02T08:11:20.738Z,100.00
2023-02-02T08:13:52.362Z,100.00
2023-02-02T08:16:19.992Z,100.00
2023-02-02T08:18:46.992Z,100.00
2023-02-02T08:21:13.813Z,100.00
2023-02-02T08:23:41.310Z,99.74
2023-02-02T08:26:13.903Z,98.28
2023-02-02T08:28:42.365Z,98.17
2023-02-02T08:31:15.641Z,96.82
2023-02-02T08:33:42.364Z,96.66
2023-02-02T08:36:13.408Z,95.75
2023-02-02T08:38:40.335Z,95.25
2023-02-02T08:41:08.668Z,95.58
2023-02-02T08:43:36.011Z,94.14
2023-02-02T08:46:05.532Z,93.27
2023-02-02T08:48:32.481Z,94.00
2023-02-02T08:50:59.342Z,93.79
2023-02-02T08:53:26.686Z,93.14
2023-02-02T08:55:59.912Z,92.64
2023-02-02T08:58:26.999Z,92.91
2023-02-02T09:00:53.775Z,92.37
2023-02-02T09:03:20.813Z,92.19
2023-02-02T09:05:47.591Z,91.75
2023-02-02T09:08:14.033Z,91.17
2023-02-02T09:10:40.459Z,91.94
2023-02-02T09:13:06.908Z,92.14
2023-02-02T09:15:33.301Z,91.94
2023-02-02T09:17:59.696Z,91.56
2023-02-02T09:20:26.491Z,91.31
2023-02-02T09:22:56.091Z,90.86
2023-02-02T09:25:25.291Z,90.88
2023-02-02T09:27:51.884Z,91.25
2023-02-02T09:30:19.041Z,90.04
2023-02-02T09:32:49.115Z,90.01
2023-02-02T09:35:15.583Z,89.47
2023-02-02T09:37:44.109Z,90.33
2023-02-02T09:40:17.649Z,90.37
2023-02-02T09:42:56.337Z,90.36
2023-02-02T09:45:43.277Z,89.50
2023-02-02T09:48:24.296Z,89.46
2023-02-02T09:51:00.561Z,89.62
2023-02-02T09:53:55.235Z,89.30
2023-02-02T09:56:38.093Z,89.40
2023-02-02T09:59:19.394Z,89.49
2023-02-02T10:01:55.464Z,87.96
2023-02-02T10:04:28.095Z,88.60
2023-02-02T10:06:58.234Z,87.69
2023-02-02T10:09:41.902Z,87.40
2023-02-02T10:12:32.938Z,87.92
2023-02-02T10:15:17.481Z,87.86
2023-02-02T10:17:54.168Z,87.76
2023-02-02T10:20:58.930Z,87.16
2023-02-02T10:23:41.600Z,87.61
2023-02-02T10:26:36.654Z,87.59
2023-02-02T10:29:11.956Z,87.81
2023-02-02T10:31:44.154Z,88.30
2023-02-02T10:34:38.005Z,88.17
2023-02-02T10:37:16.902Z,87.67
2023-02-02T10:39:55.522Z,87.79
2023-02-02T10:43:11.361Z,88.42
2023-02-02T10:45:41.461Z,87.49
2023-02-02T10:48:20.807Z,87.27
2023-02-02T10:50:51.858Z,87.38
2023-02-02T10:53:19.183Z,86.49
2023-02-02T10:56:11.994Z,87.27
2023-02-02T10:58:52.006Z,86.70
2023-02-02T11:01:22.527Z,86.86
2023-02-02T11:04:09.630Z,86.36
2023-02-02T11:06:52.269Z,86.13
2023-02-02T11:09:25.581Z,85.74
2023-02-02T11:11:57.570Z,85.02
2023-02-02T11:14:46.984Z,85.15
2023-02-02T11:17:22.133Z,84.24
2023-02-02T11:19:49.844Z,84.76
2023-02-02T11:22:25.616Z,85.08
2023-02-02T11:24:54.377Z,84.94
2023-02-02T11:27:32.612Z,85.57
2023-02-02T11:30:00.977Z,85.38
2023-02-02T11:32:33.823Z,85.08
2023-02-02T11:35:06.495Z,84.88
2023-02-02T11:37:35.739Z,84.58
2023-02-02T11:40:29.004Z,84.62
2023-02-02T11:42:58.719Z,84.70
2023-02-02T11:45:40.866Z,83.82
2023-02-02T11:48:18.966Z,83.96
2023-02-02T11:50:51.155Z,84.52
2023-02-02T11:53:48.255Z,85.14
2023-02-02T11:56:26.717Z,84.43
2023-02-02T11:58:56.574Z,83.91
2023-02-02T12:01:25.912Z,84.70
2023-02-02T12:03:54.900Z,83.98
2023-02-02T12:06:26.776Z,84.31
2023-02-02T12:08:58.252Z,84.20
2023-02-02T12:11:37.180Z,84.40
2023-02-02T12:14:28.762Z,83.94
2023-02-02T12:17:19.672Z,84.82
2023-02-02T12:19:55.566Z,84.30
2023-02-02T12:22:32.411Z,84.81
2023-02-02T12:25:38.945Z,84.60
2023-02-02T12:28:17.358Z,84.23
2023-02-02T12:30:56.402Z,83.80
2023-02-02T12:33:34.729Z,83.55
2023-02-02T12:36:28.522Z,83.84
2023-02-02T12:39:26.285Z,83.80
2023-02-02T12:42:15.985Z,84.17
2023-02-02T12:45:00.645Z,84.15
2023-02-02T12:47:34.264Z,84.18
2023-02-02T12:50:21.030Z,84.22
2023-02-02T12:53:12.068Z,84.70
2023-02-02T12:56:09.098Z,85.10
2023-02-02T12:58:54.680Z,84.64
2023-02-02T13:01:30.253Z,84.70
2023-02-02T13:04:14.944Z,85.36
2023-02-02T13:07:00.251Z,84.53
2023-02-02T13:09:44.813Z,84.28
2023-02-02T13:12:14.567Z,84.00
2023-02-02T13:14:46.727Z,85.51
2023-02-02T13:17:20.035Z,84.66
2023-02-02T13:19:53.685Z,83.95
2023-02-02T13:22:26.854Z,83.25
2023-02-02T13:24:58.967Z,83.67
2023-02-02T13:27:28.927Z,83.97
2023-02-02T13:30:22.560Z,83.44
2023-02-02T13:32:53.143Z,84.12
2023-02-02T13:35:25.558Z,84.08
2023-02-02T13:38:31.201Z,83.15
2023-02-02T13:41:03.803Z,83.25
2023-02-02T13:43:42.978Z,82.76
2023-02-02T13:46:23.564Z,82.74
2023-02-02T13:49:18.758Z,82.92
2023-02-02T13:51:50.384Z,82.37
2023-02-02T13:54:41.981Z,82.20
2023-02-02T13:57:33.555Z,81.97
2023-02-02T14:00:17.029Z,82.15
2023-02-02T14:02:47.907Z,82.02
2023-02-02T14:05:21.947Z,82.48
2023-02-02T14:07:49.267Z,82.45
2023-02-02T14:10:21.744Z,82.64
2023-02-02T14:12:48.557Z,83.04
2023-02-02T14:15:15.705Z,83.21
2023-02-02T14:17:42.003Z,83.08
2023-02-02T14:20:40.452Z,84.12
2023-02-02T14:23:50.830Z,83.82
2023-02-02T14:26:21.769Z,84.73
2023-02-02T14:28:50.017Z,85.67
2023-02-02T14:31:40.447Z,85.84
2023-02-02T14:34:28.536Z,85.72
2023-02-02T14:37:26.730Z,85.69
2023-02-02T14:40:06.117Z,85.64
2023-02-02T14:43:09.820Z,85.36
2023-02-02T14:45:50.236Z,85.37
2023-02-02T14:48:22.420Z,85.36
2023-02-02T14:51:01.696Z,85.22
2023-02-02T14:53:30.825Z,85.74
2023-02-02T14:56:05.416Z,85.90
2023-02-02T14:58:37.191Z,86.02
2023-02-02T15:01:09.910Z,86.73
2023-02-02T15:03:50.714Z,87.48
2023-02-02T15:06:36.754Z,88.04
2023-02-02T15:09:28.360Z,87.75
2023-02-02T15:12:04.210Z,87.06
2023-02-02T15:14:55.732Z,87.23
2023-02-02T15:17:25.560Z,87.69
2023-02-02T15:20:21.312Z,88.14
2023-02-02T15:22:47.725Z,87.56
2023-02-02T15:25:35.758Z,87.63
2023-02-02T15:28:17.458Z,87.94
2023-02-02T15:30:48.332Z,88.73
2023-02-02T15:33:29.827Z,89.86
2023-02-02T15:35:59.744Z,89.53
2023-02-02T15:38:34.640Z,89.73
2023-02-02T15:41:18.396Z,90.34
2023-02-02T15:43:45.278Z,91.17
2023-02-02T15:46:16.254Z,90.24
2023-02-02T15:48:43.733Z,90.30
2023-02-02T15:51:17.480Z,90.70
2023-02-02T15:53:43.808Z,90.69
2023-02-02T15:56:24.360Z,90.68
2023-02-02T15:58:54.578Z,90.76
2023-02-02T16:01:23.843Z,91.89
2023-02-02T16:04:08.649Z,91.87
2023-02-02T16:06:35.581Z,93.17
2023-02-02T16:09:03.764Z,93.90
2023-02-02T16:11:30.458Z,93.54
2023-02-02T16:14:03.199Z,93.83
2023-02-02T16:16:34.330Z,94.79
2023-02-02T16:19:06.398Z,95.92
2023-02-02T16:21:34.139Z,96.65
2023-02-02T16:24:02.796Z,97.45
2023-02-02T16:26:31.334Z,97.98
2023-02-02T16:28:59.006Z,98.01
2023-02-02T16:31:26.856Z,99.33
2023-02-02T16:33:53.311Z,99.36
2023-02-02T16:36:26.888Z,99.47
2023-02-02T16:38:55.085Z,99.81
2023-02-02T16:41:28.064Z,99.13
2023-02-02T16:43:55.133Z,100.00
2023-02-02T16:46:45.618Z,100.00
2023-02-02T16:49:18.879Z,100.00
2023-02-02T16:51:48.438Z,100.00
2023-02-02T16:54:21.127Z,100.00
2023-02-02T16:56:51.525Z,100.00
2023-02-02T16:59:37.608Z,100.00
2023-02-02T17:02:18.583Z,100.00
2023-02-02T17:04:49.588Z,100.00
2023-02-02T17:07:17.113Z,100.00
2023-02-02T17:09:45.474Z,100.00
2023-02-02T17:12:34.949Z,100.00
2023-02-02T17:15:16.971Z,100.00
2023-02-02T17:17:50.278Z,100.00
2023-02-02T17:20:17.979Z,100.00
2023-02-02T17:22:47.448Z,100.00
2023-02-02T17:25:21.266Z,100.00
2023-02-02T17:27:47.837Z,100.00
2023-02-02T17:30:16.589Z,100.00
2023-02-02T17:32:43.205Z,100.00
2023-02-02T17:35:24.847Z,100.00
2023-02-02T17:37:52.692Z,100.00
2023-02-02T17:40:21.847Z,100.00
2023-02-02T17:42:51.151Z,100.00
2023-02-02T17:45:38.542Z,100.00
2023-02-02T17:48:06.250Z,100.00
2023-02-02T17:50:33.669Z,100.00
2023-02-02T17:53:00.127Z,100.00
2023-02-02T17:55:32.562Z,100.00
2023-02-02T17:57:58.958Z,100.00
2023-02-02T18:00:30.002Z,100.00
2023-02-02T18:03:10.025Z,100.00
2023-02-02T18:05:37.547Z,100.00
2023-02-02T18:08:04.105Z,100.00
2023-02-02T18:10:30.536Z,100.00
2023-02-02T18:12:57.603Z,100.00
2023-02-02T18:15:24.403Z,100.00
2023-02-02T18:17:51.529Z,100.00
2023-02-02T18:20:19.248Z,100.00
2023-02-02T18:22:48.188Z,100.00
2023-02-02T18:25:15.130Z,100.00
2023-02-02T18:27:41.570Z,100.00
2023-02-02T18:30:08.727Z,100.00
2023-02-02T18:32:39.552Z,100.00
2023-02-02T18:35:08.276Z,100.00
2023-02-02T18:37:36.495Z,100.00
2023-02-02T18:40:04.650Z,100.00
2023-02-02T18:42:32.307Z,100.00
2023-02-02T18:44:59.951Z,100.00
2023-02-02T18:47:26.849Z,100.00
2023-02-02T18:49:53.357Z,100.00
2023-02-02T18:52:19.829Z,100.00
2023-02-02T18:54:49.720Z,100.00
2023-02-02T18:57:17.180Z,100.00
2023-02-02T18:59:43.947Z,100.00
2023-02-02T19:02:15.263Z,100.00
2023-02-02T19:05:05.576Z,100.00
2023-02-02T19:07:50.958Z,100.00
2023-02-02T19:10:18.475Z,100.00
2023-02-02T19:13:15.318Z,100.00
2023-02-02T19:15:42.318Z,100.00
2023-02-02T19:18:17.549Z,100.00
2023-02-02T19:20:44.591Z,100.00
2023-02-02T19:23:14.250Z,100.00
2023-02-02T19:25:42.189Z,100.00
2023-02-02T19:28:25.276Z,100.00
2023-02-02T19:30:53.379Z,100.00
2023-02-02T19:33:20.963Z,100.00
2023-02-02T19:35:51.549Z,100.00
2023-02-02T19:38:20.426Z,100.00
2023-02-02T19:40:47.860Z,100.00
2023-02-02T19:43:27.754Z,100.00
2023-02-02T19:45:55.310Z,100.00
2023-02-02T19:48:34.552Z,100.00
2023-02-02T19:51:01.038Z,100.00
2023-02-02T19:53:37.890Z,100.00
2023-02-02T19:56:24.622Z,100.00
2023-02-02T19:58:51.024Z,100.00
2023-02-02T20:01:21.280Z,100.00
2023-02-02T20:03:47.755Z,100.00
2023-02-02T20:06:30.524Z,100.00
2023-02-02T20:08:57.247Z,100.00
2023-02-02T20:11:23.765Z,100.00
2023-02-02T20:13:51.332Z,100.00
2023-02-02T20:16:23.929Z,100.00
2023-02-02T20:18:57.719Z,100.00
2023-02-02T20:21:45.527Z,100.00
2023-02-02T20:24:34.810Z,100.00
2023-02-02T20:27:12.136Z,100.00
2023-02-02T20:29:42.014Z,100.00
2023-02-02T20:32:19.255Z,100.00
2023-02-02T20:34:45.684Z,100.00
2023-02-02T20:37:12.000Z,100.00
2023-02-02T20:40:01.123Z,100.00
2023-02-02T20:42:28.964Z,100.00
2023-02-02T20:44:56.433Z,100.00
2023-02-02T20:47:22.859Z,100.00
2023-02-02T20:49:49.394Z,100.00
2023-02-02T20:52:23.202Z,100.00
2023-02-02T20:54:50.583Z,100.00
2023-02-02T20:57:17.504Z,100.00
2023-02-02T20:59:44.003Z,100.00
2023-02-02T21:02:18.770Z,100.00
2023-02-02T21:04:48.207Z,100.00
2023-02-02T21:07:16.891Z,100.00
2023-02-02T21:09:44.503Z,100.00
2023-02-02T21:12:11.320Z,100.00
2023-02-02T21:14:38.914Z,100.00
2023-02-02T21:17:14.775Z,100.00
2023-02-02T21:19:42.272Z,100.00
2023-02-02T21:22:08.792Z,100.00
2023-02-02T21:24:35.313Z,100.00
2023-02-02T21:27:03.390Z,100.00
2023-02-02T21:29:31.683Z,100.00
2023-02-02T21:32:01.369Z,100.00
2023-02-02T21:34:29.101Z,100.00
2023-02-02T21:36:58.137Z,100.00
2023-02-02T21:39:31.686Z,100.00
2023-02-02T21:42:11.667Z,100.00
2023-02-02T21:44:49.616Z,100.00
2023-02-02T21:47:26.533Z,100.00
2023-02-02T21:49:55.761Z,100.00
2023-02-02T21:52:22.563Z,100.00
2023-02-02T21:54:49.287Z,100.00
2023-02-02T21:57:35.018Z,100.00
2023-02-02T22:00:38.787Z,100.00
2023-02-02T22:03:19.794Z,100.00
2023-02-02T22:05:46.219Z,100.00
2023-02-02T22:08:25.222Z,100.00
2023-02-02T22:10:51.887Z,100.00
2023-02-02T22:13:21.384Z,100.00
2023-02-02T22:15:50.732Z,100.00
2023-02-02T22:18:21.623Z,100.00
2023-02-02T22:20:50.530Z,100.00
2023-02-02T22:23:22.882Z,100.00
2023-02-02T22:25:52.958Z,100.00
2023-02-02T22:28:25.971Z,100.00
2023-02-02T22:30:54.231Z,100.00
2023-02-02T22:33:21.922Z,100.00
2023-02-02T22:35:48.478Z,100.00
2023-02-02T22:38:20.593Z,100.00
2023-02-02T22:40:48.309Z,100.00
2023-02-02T22:43:16.547Z,100.00
2023-02-02T22:45:44.081Z,100.00
2023-02-02T22:48:12.015Z,100.00
2023-02-02T22:50:38.714Z,100.00
2023-02-02T22:53:05.559Z,100.00
2023-02-02T22:55:32.794Z,100.00
2023-02-02T22:57:59.348Z,100.00
2023-02-02T23:00:29.794Z,100.00
2023-02-02T23:02:57.057Z,100.00
2023-02-02T23:05:24.890Z,100.00
2023-02-02T23:07:52.059Z,100.00
2023-02-02T23:10:21.107Z,100.00
2023-02-02T23:12:48.469Z,100.00
2023-02-02T23:15:16.019Z,100.00
2023-02-02T23:17:42.759Z,100.00
2023-02-02T23:20:12.823Z,100.00
2023-02-02T23:22:39.798Z,100.00
2023-02-02T23:25:06.958Z,100.00
2023-02-02T23:27:33.361Z,100.00
2023-02-02T23:30:00.093Z,100.00
2023-02-02T23:32:26.560Z,100.00
2023-02-02T23:34:53.011Z,100.00
2023-02-02T23:37:19.451Z,100.00
2023-02-02T23:39:45.878Z,100.00
2023-02-02T23:42:12.315Z,100.00
2023-02-02T23:44:38.842Z,100.00
2023-02-02T23:47:05.765Z,100.00
2023-02-02T23:49:32.975Z,100.00
2023-02-02T23:52:00.234Z,100.00
2023-02-02T23:54:27.945Z,100.00
2023-02-02T23:56:54.386Z,100.00
2023-02-02T23:59:20.892Z,100.00
